createdAt,value
2023-02-07T00:02:10.701Z,22.35
2023-02-07T00:04:38.822Z,19.63
2023-02-07T00:07:08.705Z,19.88
2023-02-07T00:09:38.054Z,19.40
2023-02-07T00:12:07.062Z,19.33
2023-02-07T00:14:35.499Z,17.40
2023-02-07T00:17:03.809Z,19.92
2023-02-07T00:19:31.903Z,17.20
2023-02-07T00:22:00.438Z,18.83
2023-02-07T00:24:28.515Z,18.50
2023-02-07T00:27:29.557Z,18.42
2023-02-07T00:30:00.912Z,18.05
2023-02-07T00:32:33.314Z,18.70
2023-02-07T00:35:02.149Z,15.10
2023-02-07T00:37:36.977Z,19.92
2023-02-07T00:40:06.026Z,14.93
2023-02-07T00:42:35.335Z,16.95
2023-02-07T00:45:04.749Z,14.90
2023-02-07T00:47:32.977Z,18.83
2023-02-07T00:50:04.968Z,18.27
2023-02-07T00:52:33.280Z,16.38
2023-02-07T00:55:01.335Z,18.38
2023-02-07T00:57:29.697Z,15.85
2023-02-07T00:59:57.701Z,16.88
2023-02-07T01:02:25.601Z,16.52
2023-02-07T01:04:53.666Z,17.08
2023-02-07T01:07:23.069Z,14.30
2023-02-07T01:09:52.386Z,12.68
2023-02-07T01:12:20.654Z,15.65
2023-02-07T01:14:57.026Z,19.08
2023-02-07T01:17:27.051Z,18.85
2023-02-07T01:20:01.607Z,19.15
2023-02-07T01:22:30.059Z,17.50
2023-02-07T01:24:58.089Z,19.83
2023-02-07T01:27:26.395Z,30.58
2023-02-07T01:29:55.002Z,19.33
2023-02-07T01:32:23.987Z,17.67
2023-02-07T01:34:51.986Z,18.30
2023-02-07T01:37:20.681Z,18.85
2023-02-07T01:39:48.820Z,14.73
2023-02-07T01:42:17.771Z,20.38
2023-02-07T01:44:52.214Z,17.80
2023-02-07T01:47:22.412Z,18.60
2023-02-07T01:49:51.601Z,16.60
2023-02-07T01:52:26.292Z,19.20
2023-02-07T01:55:00.336Z,20.05
2023-02-07T01:57:28.393Z,23.90
2023-02-07T01:59:57.043Z,13.90
2023-02-07T02:02:25.370Z,17.80
2023-02-07T02:04:54.083Z,14.75
2023-02-07T02:07:33.158Z,17.20
2023-02-07T02:10:43.579Z,18.52
2023-02-07T02:13:31.923Z,11.30
2023-02-07T02:16:59.555Z,14.27
2023-02-07T02:20:04.877Z,14.50
2023-02-07T02:22:45.333Z,15.70
2023-02-07T02:25:39.458Z,12.88
2023-02-07T02:28:22.178Z,13.15
2023-02-07T02:31:05.867Z,19.20
2023-02-07T02:33:48.068Z,15.30
2023-02-07T02:36:28.803Z,13.38
2023-02-07T02:39:02.534Z,17.10
2023-02-07T02:41:38.714Z,18.23
2023-02-07T02:44:12.097Z,12.25
2023-02-07T02:46:41.628Z,14.80
2023-02-07T02:49:11.875Z,10.90
2023-02-07T02:51:40.271Z,15.18
2023-02-07T02:54:27.858Z,16.48
2023-02-07T02:57:03.209Z,14.50
2023-02-07T03:00:03.598Z,14.13
2023-02-07T03:02:45.091Z,15.88
2023-02-07T03:05:56.794Z,16.00
2023-02-07T03:08:37.259Z,17.63
2023-02-07T03:11:12.971Z,18.08
2023-02-07T03:13:41.071Z,16.38
2023-02-07T03:16:15.104Z,16.35
2023-02-07T03:18:52.749Z,16.70
2023-02-07T03:21:57.906Z,14.13
2023-02-07T03:24:34.765Z,20.60
2023-02-07T03:27:07.484Z,17.48
2023-02-07T03:29:37.441Z,12.32
2023-02-07T03:32:09.031Z,15.98
2023-02-07T03:34:43.172Z,21.75
2023-02-07T03:37:18.122Z,14.93
2023-02-07T03:39:47.157Z,15.93
2023-02-07T03:42:42.217Z,12.80
2023-02-07T03:45:12.378Z,14.05
2023-02-07T03:47:42.101Z,10.73
2023-02-07T03:50:10.490Z,17.63
2023-02-07T03:52:38.515Z,19.83
2023-02-07T03:55:08.825Z,16.80
2023-02-07T03:57:37.917Z,21.60
2023-02-07T04:00:06.576Z,15.30
2023-02-07T04:02:40.844Z,20.45
2023-02-07T04:05:09.254Z,20.45
2023-02-07T04:07:37.663Z,21.40
2023-02-07T04:10:11.835Z,18.67
2023-02-07T04:12:43.377Z,21.60
2023-02-07T04:15:12.726Z,22.83
2023-02-07T04:17:41.364Z,19.83
2023-02-07T04:20:09.968Z,16.75
2023-02-07T04:22:38.922Z,19.50
2023-02-07T04:25:07.404Z,26.48
2023-02-07T04:27:36.539Z,21.65
2023-02-07T04:30:06.468Z,21.48
2023-02-07T04:32:35.314Z,17.60
2023-02-07T04:35:03.974Z,26.40
2023-02-07T04:37:33.762Z,19.92
2023-02-07T04:40:01.607Z,18.27
2023-02-07T04:42:30.589Z,22.27
2023-02-07T04:44:59.068Z,22.65
2023-02-07T04:47:28.273Z,21.20
2023-02-07T04:49:57.348Z,24.17
2023-02-07T04:52:25.508Z,19.48
2023-02-07T04:54:54.893Z,20.92
2023-02-07T04:57:23.916Z,25.70
2023-02-07T04:59:51.866Z,16.38
2023-02-07T05:02:21.372Z,23.33
2023-02-07T05:04:49.320Z,15.85
2023-02-07T05:07:17.469Z,21.55
2023-02-07T05:09:45.599Z,25.58
2023-02-07T05:12:16.337Z,28.75
2023-02-07T05:14:44.505Z,13.60
2023-02-07T05:17:12.432Z,20.58
2023-02-07T05:19:40.251Z,24.02
2023-02-07T05:22:08.525Z,26.75
2023-02-07T05:24:37.173Z,30.48
2023-02-07T05:27:05.293Z,22.25
2023-02-07T05:29:33.217Z,22.50
2023-02-07T05:32:27.255Z,25.50
2023-02-07T05:34:55.103Z,24.05
2023-02-07T05:37:23.152Z,24.65
2023-02-07T05:39:51.506Z,35.95
2023-02-07T05:42:20.600Z,29.95
2023-02-07T05:44:48.919Z,24.35
2023-02-07T05:47:18.335Z,31.58
2023-02-07T05:49:46.586Z,22.08
2023-02-07T05:52:15.572Z,27.42
2023-02-07T05:54:45.953Z,22.67
2023-02-07T05:57:13.944Z,22.77
2023-02-07T05:59:42.374Z,23.45
2023-02-07T06:02:10.451Z,21.23
2023-02-07T06:04:41.574Z,26.70
2023-02-07T06:07:09.460Z,27.25
2023-02-07T06:09:37.534Z,29.83
2023-02-07T06:12:10.354Z,27.77
2023-02-07T06:14:40.390Z,24.15
2023-02-07T06:17:10.142Z,18.02
2023-02-07T06:19:37.987Z,22.92
2023-02-07T06:22:07.365Z,25.90
2023-02-07T06:24:35.390Z,20.08
2023-02-07T06:27:03.797Z,20.33
2023-02-07T06:29:35.759Z,27.33
2023-02-07T06:32:07.182Z,21.27
2023-02-07T06:34:46.618Z,23.80
2023-02-07T06:37:18.509Z,26.55
2023-02-07T06:39:47.671Z,24.10
2023-02-07T06:42:19.093Z,16.52
2023-02-07T06:45:00.505Z,24.33
2023-02-07T06:47:32.769Z,23.42
2023-02-07T06:50:05.210Z,24.55
2023-02-07T06:52:36.940Z,24.35
2023-02-07T06:55:05.327Z,26.88
2023-02-07T06:57:38.366Z,25.90
2023-02-07T07:00:10.052Z,27.35
2023-02-07T07:02:41.243Z,23.80
2023-02-07T07:05:11.020Z,26.13
2023-02-07T07:07:41.178Z,24.52
2023-02-07T07:10:09.434Z,26.80
2023-02-07T07:12:40.655Z,26.20
2023-02-07T07:15:10.813Z,26.02
2023-02-07T07:17:38.841Z,27.40
2023-02-07T07:20:10.518Z,26.48
2023-02-07T07:22:38.701Z,28.02
2023-02-07T07:25:07.066Z,31.77
2023-02-07T07:27:37.367Z,28.95
2023-02-07T07:30:05.751Z,27.63
2023-02-07T07:32:34.704Z,19.52
2023-02-07T07:35:05.878Z,20.90
2023-02-07T07:37:34.012Z,30.67
2023-02-07T07:40:03.469Z,29.77
2023-02-07T07:42:32.768Z,16.95
2023-02-07T07:45:17.878Z,19.83
2023-02-07T07:47:46.099Z,22.52
2023-02-07T07:50:16.829Z,26.73
2023-02-07T07:52:46.592Z,26.70
2023-02-07T07:55:15.742Z,16.65
2023-02-07T07:57:44.568Z,15.05
2023-02-07T08:00:16.320Z,20.60
2023-02-07T08:02:53.564Z,22.17
2023-02-07T08:05:21.938Z,26.50
2023-02-07T08:07:51.088Z,23.13
2023-02-07T08:10:19.064Z,18.95
2023-02-07T08:12:47.517Z,27.05
2023-02-07T08:15:15.743Z,15.57
2023-02-07T08:17:43.736Z,20.15
2023-02-07T08:20:12.946Z,21.77
2023-02-07T08:22:42.463Z,23.77
2023-02-07T08:25:10.374Z,27.80
2023-02-07T08:27:39.550Z,26.17
2023-02-07T08:30:09.379Z,16.55
2023-02-07T08:32:40.137Z,23.60
2023-02-07T08:35:10.554Z,24.15
2023-02-07T08:37:39.432Z,24.92
2023-02-07T08:40:07.741Z,20.45
2023-02-07T08:42:36.016Z,25.35
2023-02-07T08:45:05.860Z,20.25
2023-02-07T08:47:36.020Z,17.45
2023-02-07T08:50:05.932Z,15.57
2023-02-07T08:52:33.946Z,26.63
2023-02-07T08:55:01.828Z,18.02
2023-02-07T08:57:30.034Z,17.17
2023-02-07T08:59:58.401Z,20.25
2023-02-07T09:02:27.224Z,21.35
2023-02-07T09:04:57.040Z,17.95
2023-02-07T09:07:25.106Z,16.17
2023-02-07T09:09:56.779Z,17.25
2023-02-07T09:12:25.186Z,14.27
2023-02-07T09:14:53.141Z,27.30
2023-02-07T09:17:22.356Z,26.30
2023-02-07T09:19:50.240Z,16.55
2023-02-07T09:22:18.689Z,17.00
2023-02-07T09:24:48.306Z,18.05
2023-02-07T09:27:17.504Z,22.13
2023-02-07T09:29:47.471Z,27.83
2023-02-07T09:32:15.517Z,18.80
2023-02-07T09:34:44.685Z,21.98
2023-02-07T09:37:12.782Z,19.27
2023-02-07T09:39:42.828Z,21.65
2023-02-07T09:42:29.520Z,21.85
2023-02-07T09:45:21.037Z,18.58
2023-02-07T09:47:53.326Z,19.77
2023-02-07T09:50:29.285Z,11.85
2023-02-07T09:53:27.916Z,14.93
2023-02-07T09:55:59.724Z,17.80
2023-02-07T09:58:35.781Z,16.85
2023-02-07T10:01:11.350Z,17.57
2023-02-07T10:04:01.902Z,16.15
2023-02-07T10:06:30.821Z,18.83
2023-02-07T10:09:01.018Z,26.88
2023-02-07T10:11:46.009Z,24.65
2023-02-07T10:14:27.255Z,26.13
2023-02-07T10:17:32.471Z,18.40
2023-02-07T10:20:20.607Z,19.73
2023-02-07T10:22:48.734Z,22.67
2023-02-07T10:25:44.542Z,21.10
2023-02-07T10:28:15.787Z,21.67
2023-02-07T10:30:56.974Z,16.65
2023-02-07T10:33:29.059Z,20.90
2023-02-07T10:35:58.161Z,22.38
2023-02-07T10:38:56.713Z,19.92
2023-02-07T10:41:27.964Z,16.65
2023-02-07T10:43:57.013Z,23.05
2023-02-07T10:46:25.002Z,19.52
2023-02-07T10:48:53.024Z,20.80
2023-02-07T10:51:37.893Z,19.10
2023-02-07T10:54:16.987Z,19.38
2023-02-07T10:56:50.598Z,17.25
2023-02-07T10:59:40.762Z,25.42
2023-02-07T11:02:33.808Z,18.75
2023-02-07T11:05:36.885Z,23.40
2023-02-07T11:08:23.384Z,19.80
2023-02-07T11:10:54.908Z,19.40
2023-02-07T11:13:27.850Z,17.15
2023-02-07T11:15:57.284Z,17.15
2023-02-07T11:18:45.976Z,15.38
2023-02-07T11:21:34.010Z,12.77
2023-02-07T11:24:23.789Z,17.50
2023-02-07T11:26:57.871Z,18.25
2023-02-07T11:29:34.484Z,20.50
2023-02-07T11:32:05.898Z,21.00
2023-02-07T11:34:49.090Z,20.27
2023-02-07T11:37:22.487Z,14.27
2023-02-07T11:39:51.450Z,17.10
2023-02-07T11:42:30.510Z,20.20
2023-02-07T11:44:59.022Z,13.13
2023-02-07T11:47:30.763Z,16.08
2023-02-07T11:50:01.383Z,18.15
2023-02-07T11:52:56.052Z,19.42
2023-02-07T11:56:59.762Z,16.63
2023-02-07T12:00:17.282Z,28.75
2023-02-07T12:02:52.057Z,15.23
2023-02-07T12:05:25.702Z,17.52
2023-02-07T12:08:01.705Z,17.02
2023-02-07T12:10:35.256Z,9.55
2023-02-07T12:13:17.648Z,17.17
2023-02-07T12:16:07.854Z,17.08
2023-02-07T12:18:38.536Z,15.23
2023-02-07T12:21:19.794Z,14.77
2023-02-07T12:23:57.121Z,19.10
2023-02-07T12:26:30.162Z,14.82
2023-02-07T12:29:23.179Z,13.45
2023-02-07T12:32:01.479Z,11.30
2023-02-07T12:34:56.806Z,15.55
2023-02-07T12:37:31.378Z,16.90
2023-02-07T12:40:11.418Z,17.40
2023-02-07T12:42:43.361Z,14.30
2023-02-07T12:45:15.898Z,21.05
2023-02-07T12:48:41.892Z,21.77
2023-02-07T12:51:27.828Z,16.33
2023-02-07T12:54:01.700Z,16.33
2023-02-07T12:56:48.859Z,19.80
2023-02-07T12:59:30.234Z,17.27
2023-02-07T13:02:39.109Z,12.60
2023-02-07T13:05:37.826Z,14.65
2023-02-07T13:08:17.166Z,15.73
2023-02-07T13:11:00.549Z,15.07
2023-02-07T13:13:54.287Z,17.88
2023-02-07T13:16:30.503Z,15.48
2023-02-07T13:19:02.933Z,22.30
2023-02-07T13:21:48.624Z,12.80
2023-02-07T13:24:18.728Z,13.15
2023-02-07T13:26:51.937Z,20.33
2023-02-07T13:29:22.338Z,22.02
2023-02-07T13:31:52.550Z,22.63
2023-02-07T13:34:26.259Z,18.58
2023-02-07T13:36:54.266Z,10.48
2023-02-07T13:39:39.485Z,17.02
2023-02-07T13:42:40.795Z,14.82
2023-02-07T13:45:39.079Z,17.02
2023-02-07T13:48:15.195Z,15.18
2023-02-07T13:50:55.319Z,18.95
2023-02-07T13:53:40.043Z,19.60
2023-02-07T13:56:31.232Z,14.75
2023-02-07T13:59:19.165Z,15.52
2023-02-07T14:01:52.843Z,13.55
2023-02-07T14:04:21.076Z,16.13
2023-02-07T14:07:05.921Z,20.08
2023-02-07T14:09:48.399Z,15.45
2023-02-07T14:12:38.051Z,21.02
2023-02-07T14:15:24.621Z,16.85
2023-02-07T14:18:04.058Z,20.92
2023-02-07T14:20:38.571Z,16.15
2023-02-07T14:23:19.662Z,19.20
2023-02-07T14:25:48.086Z,12.05
2023-02-07T14:28:29.842Z,18.40
2023-02-07T14:31:01.615Z,17.58
2023-02-07T14:33:41.759Z,22.15
2023-02-07T14:36:14.435Z,25.20
2023-02-07T14:39:20.247Z,17.73
2023-02-07T14:41:49.275Z,17.88
2023-02-07T14:44:37.719Z,17.42
2023-02-07T14:47:28.316Z,15.75
2023-02-07T14:49:58.726Z,21.65
2023-02-07T14:52:32.289Z,19.15
2023-02-07T14:55:18.318Z,20.50
2023-02-07T14:58:05.036Z,18.17
2023-02-07T15:00:38.459Z,15.38
2023-02-07T15:03:17.848Z,19.17
2023-02-07T15:05:51.526Z,16.60
2023-02-07T15:08:21.527Z,14.88
2023-02-07T15:11:12.062Z,20.35
2023-02-07T15:13:45.846Z,20.25
2023-02-07T15:16:30.036Z,20.00
2023-02-07T15:19:36.061Z,23.17
2023-02-07T15:22:14.217Z,20.00
2023-02-07T15:24:52.027Z,17.27
2023-02-07T15:27:26.263Z,22.25
2023-02-07T15:33:05.905Z,21.48
2023-02-07T15:35:39.567Z,28.55
2023-02-07T15:38:21.452Z,19.73
2023-02-07T15:40:51.175Z,13.40
2023-02-07T15:43:28.209Z,22.58
2023-02-07T15:46:05.721Z,15.75
2023-02-07T15:48:54.671Z,22.08
2023-02-07T15:51:25.259Z,15.88
2023-02-07T15:54:01.402Z,25.17
2023-02-07T15:56:30.143Z,24.02
2023-02-07T15:59:11.348Z,23.60
2023-02-07T16:01:41.944Z,26.95
2023-02-07T16:04:13.220Z,24.63
2023-02-07T16:07:07.104Z,25.45
2023-02-07T16:09:43.654Z,29.05
2023-02-07T16:12:33.976Z,19.45
2023-02-07T16:15:02.385Z,27.73
2023-02-07T16:17:39.919Z,28.80
2023-02-07T16:20:13.408Z,28.65
2023-02-07T16:22:45.071Z,25.88
2023-02-07T16:25:26.115Z,26.42
2023-02-07T16:28:00.515Z,22.42
2023-02-07T16:30:37.079Z,17.00
2023-02-07T16:33:11.518Z,25.77
2023-02-07T16:35:39.771Z,21.83
2023-02-07T16:38:11.267Z,27.17
2023-02-07T16:40:40.799Z,24.05
2023-02-07T16:43:37.690Z,26.27
2023-02-07T16:46:06.804Z,27.90
2023-02-07T16:48:35.170Z,32.38
2023-02-07T16:51:03.431Z,27.80
2023-02-07T16:53:34.925Z,33.97
2023-02-07T16:56:03.370Z,25.70
2023-02-07T16:58:44.071Z,27.95
2023-02-07T17:01:33.657Z,29.83
2023-02-07T17:04:02.563Z,29.13
2023-02-07T17:06:32.278Z,33.17
2023-02-07T17:09:01.035Z,26.48
2023-02-07T17:11:32.724Z,34.42
2023-02-07T17:14:01.134Z,32.85
2023-02-07T17:16:29.111Z,32.85
2023-02-07T17:18:57.712Z,28.30
2023-02-07T17:21:26.621Z,32.90
2023-02-07T17:24:25.704Z,25.17
2023-02-07T17:26:55.819Z,31.20
2023-02-07T17:29:34.504Z,26.83
2023-02-07T17:32:13.506Z,31.15
2023-02-07T17:34:43.075Z,31.85
2023-02-07T17:37:12.343Z,22.65
2023-02-07T17:39:44.002Z,26.52
2023-02-07T17:42:13.409Z,29.20
2023-02-07T17:44:44.298Z,23.65
2023-02-07T17:47:14.525Z,32.65
2023-02-07T17:49:43.331Z,22.52
2023-02-07T17:52:14.866Z,27.70
2023-02-07T17:55:06.932Z,20.88
2023-02-07T17:57:35.709Z,17.02
2023-02-07T18:00:05.032Z,12.57
2023-02-07T18:02:45.236Z,15.73
2023-02-07T18:05:17.620Z,20.90
2023-02-07T18:07:47.794Z,21.20
2023-02-07T18:10:29.248Z,17.40
2023-02-07T18:13:03.425Z,23.38
2023-02-07T18:18:17.980Z,23.13
2023-02-07T18:20:54.880Z,21.25
2023-02-07T18:23:24.336Z,24.65
2023-02-07T18:25:53.288Z,27.55
2023-02-07T18:28:22.413Z,25.77
2023-02-07T18:30:50.856Z,20.30
2023-02-07T18:33:25.195Z,18.08
2023-02-07T18:35:57.985Z,29.27
2023-02-07T18:39:58.501Z,22.67
2023-02-07T18:42:28.685Z,16.15
2023-02-07T18:45:51.216Z,17.10
2023-02-07T18:53:37.110Z,20.13
2023-02-07T18:56:31.894Z,25.73
2023-02-07T18:59:31.081Z,16.85
2023-02-07T19:02:01.158Z,22.42
2023-02-07T19:04:32.961Z,12.23
2023-02-07T19:07:06.601Z,22.23
2023-02-07T19:09:36.876Z,16.10
2023-02-07T19:12:18.272Z,18.38
2023-02-07T19:15:11.676Z,23.52
2023-02-07T19:17:43.459Z,21.42
2023-02-07T19:20:12.042Z,22.08
2023-02-07T19:22:41.047Z,20.52
2023-02-07T19:25:09.688Z,25.50
2023-02-07T19:27:38.222Z,22.90
2023-02-07T19:30:08.118Z,23.40
2023-02-07T19:32:38.053Z,24.67
2023-02-07T19:35:06.429Z,26.55
2023-02-07T19:37:59.488Z,29.83
2023-02-07T19:40:27.570Z,21.88
2023-02-07T19:42:58.485Z,17.55
2023-02-07T19:45:27.608Z,28.42
2023-02-07T19:47:55.733Z,29.00
2023-02-07T19:50:23.952Z,25.85
2023-02-07T19:52:53.881Z,25.17
2023-02-07T19:55:22.350Z,27.08
2023-02-07T19:57:51.753Z,21.40
2023-02-07T20:00:20.580Z,20.75
2023-02-07T20:02:50.198Z,26.73
2023-02-07T20:05:19.231Z,23.13
2023-02-07T20:07:49.856Z,26.67
2023-02-07T20:10:21.494Z,16.38
2023-02-07T20:12:50.300Z,25.60
2023-02-07T20:15:18.646Z,24.25
2023-02-07T20:17:46.832Z,13.07
2023-02-07T20:20:17.539Z,15.80
2023-02-07T20:22:47.085Z,25.27
2023-02-07T20:25:16.321Z,24.85
2023-02-07T20:27:44.666Z,28.08
2023-02-07T20:30:14.793Z,19.83
2023-02-07T20:32:43.105Z,25.10
2023-02-07T20:35:11.390Z,27.05
2023-02-07T20:37:40.372Z,25.23
2023-02-07T20:40:12.675Z,26.00
2023-02-07T20:42:40.734Z,21.13
2023-02-07T20:45:09.170Z,31.50
2023-02-07T20:47:38.367Z,29.08
2023-02-07T20:50:09.295Z,31.75
2023-02-07T20:52:39.317Z,27.23
2023-02-07T20:55:08.514Z,23.67
2023-02-07T20:57:37.368Z,17.77
2023-02-07T21:00:42.216Z,24.67
2023-02-07T21:03:10.288Z,29.00
2023-02-07T21:05:39.387Z,19.92
2023-02-07T21:08:07.263Z,22.52
2023-02-07T21:10:36.443Z,22.02
2023-02-07T21:13:04.387Z,21.00
2023-02-07T21:15:32.386Z,29.75
2023-02-07T21:18:00.526Z,33.95
2023-02-07T21:20:33.172Z,26.63
2023-02-07T21:23:03.222Z,27.55
2023-02-07T21:25:33.168Z,28.83
2023-02-07T21:28:02.420Z,20.92
2023-02-07T21:30:33.584Z,23.85
2023-02-07T21:33:01.573Z,25.70
2023-02-07T21:35:30.270Z,30.48
2023-02-07T21:37:58.523Z,29.48
2023-02-07T21:40:26.470Z,25.30
2023-02-07T21:42:55.769Z,23.67
2023-02-07T21:45:25.950Z,23.67
2023-02-07T21:47:54.797Z,19.35
2023-02-07T21:50:23.605Z,28.88
2023-02-07T21:52:51.875Z,27.42
2023-02-07T21:55:21.391Z,26.45
2023-02-07T21:57:50.397Z,32.40
2023-02-07T22:00:18.656Z,27.77
2023-02-07T22:02:47.467Z,30.30
2023-02-07T22:05:16.640Z,26.15
2023-02-07T22:07:45.326Z,30.08
2023-02-07T22:10:16.010Z,33.58
2023-02-07T22:12:52.492Z,32.53
2023-02-07T22:17:52.454Z,22.52
2023-02-07T22:20:21.485Z,27.98
2023-02-07T22:22:50.019Z,29.08
2023-02-07T22:25:24.517Z,26.00
2023-02-07T22:27:53.089Z,28.85
2023-02-07T22:30:22.472Z,27.52
2023-02-07T22:32:51.139Z,26.55
2023-02-07T22:35:19.609Z,30.60
2023-02-07T22:37:50.265Z,29.33
2023-02-07T22:40:18.355Z,31.30
2023-02-07T22:42:47.479Z,35.90
2023-02-07T22:45:16.326Z,27.80
2023-02-07T22:47:45.938Z,27.23
2023-02-07T22:50:14.075Z,33.20
2023-02-07T22:52:43.337Z,31.30
2023-02-07T22:55:13.497Z,32.30
2023-02-07T22:57:41.456Z,38.40
2023-02-07T23:00:13.275Z,26.70
2023-02-07T23:02:41.684Z,22.40
2023-02-07T23:05:11.478Z,25.52
2023-02-07T23:07:39.459Z,28.45
2023-02-07T23:10:09.958Z,31.48
2023-02-07T23:12:39.354Z,30.70
2023-02-07T23:15:08.440Z,33.60
2023-02-07T23:17:40.027Z,26.15
2023-02-07T23:20:08.576Z,31.98
2023-02-07T23:22:40.184Z,29.70
2023-02-07T23:25:10.186Z,29.10
2023-02-07T23:27:38.238Z,28.75
2023-02-07T23:30:07.042Z,29.02
2023-02-07T23:32:35.122Z,27.55
2023-02-07T23:35:03.043Z,30.30
2023-02-07T23:37:32.513Z,34.15
2023-02-07T23:40:00.497Z,33.75
2023-02-07T23:42:34.072Z,25.00
2023-02-07T23:45:02.226Z,27.73
2023-02-07T23:47:33.358Z,32.75
2023-02-07T23:50:01.957Z,30.42
2023-02-07T23:52:30.286Z,35.33
2023-02-07T23:54:58.591Z,33.58
2023-02-07T23:57:26.693Z,25.73
2023-02-07T23:59:54.627Z,30.85
